Time;durP1;ratioP1;P1;durP2;ratioP2;P2;SDS_P1;SDS_P2;PMS_P1;PMS_P2;Temp;Humidity;BMP_temperature;BMP_pressure;BME280_temperature;BME280_humidity;BME280_pressure;Samples;Min_cycle;Max_cycle;Signal;HPM_P1;HPM_P2
2023/08/24 00:01:24;;;;;;;14.27;8.48;;;;;;;21.94;71.48;94699.56;4991810;28;20206;-75
2023/08/24 00:03:50;;;;;;;15.57;8.77;;;;;;;21.99;71.32;94701.16;4992537;28;20349;-75
2023/08/24 00:06:18;;;;;;;10.40;7.93;;;;;;;21.97;70.45;94709.81;4992485;28;20563;-75
2023/08/24 00:08:45;;;;;;;14.35;8.65;;;;;;;21.92;71.81;94701.94;4990917;28;20205;-75
2023/08/24 00:11:14;;;;;;;12.45;7.97;;;;;;;21.89;71.29;94711.00;4992374;28;20623;-76
2023/08/24 00:13:41;;;;;;;19.20;8.40;;;;;;;21.82;71.51;94705.50;4991488;28;20322;-75
2023/08/24 00:16:09;;;;;;;16.48;8.30;;;;;;;21.77;71.86;94700.38;4991898;28;20213;-76
2023/08/24 00:18:36;;;;;;;13.82;8.27;;;;;;;21.41;72.95;94705.19;4991467;28;20264;-76
2023/08/24 00:21:03;;;;;;;12.73;8.55;;;;;;;21.47;72.28;94703.56;4991764;28;20225;-74
2023/08/24 00:23:31;;;;;;;12.13;7.70;;;;;;;21.44;72.61;94703.59;4991107;28;20206;-74
2023/08/24 00:25:58;;;;;;;11.57;8.50;;;;;;;21.56;73.29;94694.94;4992138;28;20940;-74
2023/08/24 00:28:26;;;;;;;13.30;8.02;;;;;;;21.41;73.62;94694.16;4991132;28;20212;-74
2023/08/24 00:30:53;;;;;;;10.95;8.23;;;;;;;21.40;73.71;94698.09;4991468;28;20206;-74
2023/08/24 00:33:20;;;;;;;11.85;7.72;;;;;;;21.36;73.12;94691.78;4991475;28;20619;-74
2023/08/24 00:35:47;;;;;;;12.57;8.82;;;;;;;21.28;73.15;94687.47;4991489;28;20291;-74
2023/08/24 00:38:14;;;;;;;12.63;8.02;;;;;;;21.31;72.82;94683.13;4991641;28;20591;-74
2023/08/24 00:40:43;;;;;;;13.00;8.00;;;;;;;21.32;73.14;94690.22;4991501;28;20213;-74
2023/08/24 00:43:10;;;;;;;13.73;9.00;;;;;;;21.39;73.16;94691.00;4991614;28;20614;-74
2023/08/24 00:45:37;;;;;;;10.27;7.50;;;;;;;21.34;73.05;94693.34;4990860;28;20234;-74
2023/08/24 00:48:05;;;;;;;12.45;7.93;;;;;;;20.98;74.71;94700.81;4991824;28;20704;-74
2023/08/24 00:50:32;;;;;;;12.38;7.75;;;;;;;20.78;75.23;94703.13;4991296;28;20213;-75
2023/08/24 00:52:59;;;;;;;12.93;7.93;;;;;;;20.88;74.71;94705.13;4991123;28;20213;-75
2023/08/24 00:55:26;;;;;;;11.15;7.68;;;;;;;20.92;74.48;94700.38;4991314;28;20702;-75
2023/08/24 00:57:54;;;;;;;10.60;7.47;;;;;;;21.00;74.76;94701.19;4998677;28;20212;-76
2023/08/24 01:00:21;;;;;;;13.20;8.23;;;;;;;21.14;74.18;94707.50;4996609;28;20204;-75
2023/08/24 01:02:48;;;;;;;11.43;8.27;;;;;;;21.10;74.58;94706.72;4990539;28;20280;-74
2023/08/24 01:05:15;;;;;;;13.25;7.97;;;;;;;21.04;74.59;94702.78;4991156;28;20671;-76
2023/08/24 01:07:42;;;;;;;12.10;8.63;;;;;;;21.06;75.54;94703.16;4990802;28;20213;-75
2023/08/24 01:10:11;;;;;;;11.90;8.35;;;;;;;21.01;75.92;94692.56;4991132;28;20316;-75
2023/08/24 01:12:53;;;;;;;11.52;8.23;;;;;;;20.94;75.57;94693.31;4990488;28;20287;-75
2023/08/24 01:15:30;;;;;;;15.07;9.20;;;;;;;20.90;75.70;94702.78;4990955;28;20245;-76
2023/08/24 01:18:02;;;;;;;12.35;8.85;;;;;;;20.81;76.28;94702.34;4991090;28;20266;-75
2023/08/24 01:20:29;;;;;;;13.32;9.32;;;;;;;20.83;76.72;94700.00;4991095;28;20552;-75
2023/08/24 01:23:03;;;;;;;11.00;8.27;;;;;;;20.82;77.13;94695.66;4990846;28;20218;-75
2023/08/24 01:25:39;;;;;;;15.05;9.35;;;;;;;20.83;76.49;94691.72;4990871;28;20282;-75
2023/08/24 01:28:09;;;;;;;12.65;8.00;;;;;;;20.83;76.88;94692.53;4991395;28;20240;-75
2023/08/24 01:30:36;;;;;;;14.90;8.95;;;;;;;20.91;76.76;94693.31;4990621;28;20206;-75
2023/08/24 01:33:04;;;;;;;15.82;9.00;;;;;;;20.89;76.48;94695.69;4990786;28;20205;-75
2023/08/24 01:35:32;;;;;;;20.58;9.85;;;;;;;20.84;76.77;94693.31;4991075;28;20236;-75
2023/08/24 01:38:04;;;;;;;12.18;8.25;;;;;;;20.79;76.96;94701.94;4990561;28;20217;-75
2023/08/24 01:40:44;;;;;;;14.57;9.45;;;;;;;20.81;77.39;94713.34;4983830;28;20212;-75
2023/08/24 01:43:15;;;;;;;16.35;9.43;;;;;;;20.76;77.11;94705.50;4991156;28;20248;-76
2023/08/24 01:45:45;;;;;;;14.75;9.32;;;;;;;20.73;77.19;94703.53;4990360;28;20233;-76
2023/08/24 01:48:13;;;;;;;16.38;8.77;;;;;;;20.83;76.72;94708.25;4991104;28;20534;-75
2023/08/24 01:50:41;;;;;;;13.90;7.90;;;;;;;20.83;76.46;94708.25;4990566;28;20217;-76
2023/08/24 01:53:08;;;;;;;10.63;7.70;;;;;;;20.80;76.38;94709.03;4990615;28;20213;-73
2023/08/24 01:55:36;;;;;;;13.23;8.55;;;;;;;20.75;76.78;94701.16;4990216;28;20210;-75
2023/08/24 01:58:03;;;;;;;14.35;7.90;;;;;;;20.75;76.95;94698.41;4990996;28;20210;-75
2023/08/24 02:00:31;;;;;;;12.00;8.52;;;;;;;20.80;76.59;94698.00;4990543;28;20610;-75
2023/08/24 02:02:58;;;;;;;12.93;7.93;;;;;;;20.64;76.56;94694.88;4991009;28;20288;-75
2023/08/24 02:05:28;;;;;;;11.93;7.45;;;;;;;20.64;76.58;94697.63;4990423;28;20593;-76
2023/08/24 02:07:57;;;;;;;21.02;9.32;;;;;;;20.36;77.69;94693.59;4990581;28;20206;-75
2023/08/24 02:10:24;;;;;;;12.90;9.27;;;;;;;20.38;77.84;94699.47;4990888;28;20206;-75
2023/08/24 02:12:51;;;;;;;12.40;9.13;;;;;;;20.23;78.49;94697.81;4990839;28;20904;-75
2023/08/24 02:15:17;;;;;;;12.77;8.63;;;;;;;20.11;79.66;94706.41;4990181;28;20246;-75
2023/08/24 02:17:46;;;;;;;15.45;8.35;;;;;;;20.04;80.82;94707.19;4990607;28;20662;-75
2023/08/24 02:20:13;;;;;;;15.18;9.32;;;;;;;20.11;80.34;94714.69;4990481;28;20217;-75
2023/08/24 02:22:39;;;;;;;14.80;9.27;;;;;;;20.15;80.09;94713.53;4990338;28;20215;-75
2023/08/24 02:25:10;;;;;;;15.07;8.45;;;;;;;20.23;79.14;94714.34;4994207;28;20640;-75
2023/08/24 02:27:37;;;;;;;12.27;7.57;;;;;;;20.31;77.92;94715.94;4994396;28;20252;-76
2023/08/24 02:30:05;;;;;;;18.70;8.95;;;;;;;20.36;78.05;94718.38;4994346;28;20216;-75
2023/08/24 02:32:32;;;;;;;15.38;8.50;;;;;;;20.39;78.62;94720.31;5004744;28;20216;-75
2023/08/24 02:35:00;;;;;;;12.15;9.15;;;;;;;20.38;78.72;94721.50;4995547;28;20281;-75
2023/08/24 02:37:27;;;;;;;12.52;9.30;;;;;;;20.34;79.81;94717.94;4994014;28;20268;-75
2023/08/24 02:39:54;;;;;;;13.43;8.70;;;;;;;20.27;80.33;94726.16;4993571;28;20209;-75
2023/08/24 02:42:20;;;;;;;12.90;8.52;;;;;;;20.21;80.59;94717.50;4994174;28;20566;-75
2023/08/24 02:44:47;;;;;;;12.48;8.55;;;;;;;20.27;80.41;94698.63;4975736;28;20271;-75
2023/08/24 02:47:14;;;;;;;12.00;8.52;;;;;;;20.20;80.83;94704.13;4993867;28;20209;-75
2023/08/24 02:49:41;;;;;;;18.00;9.00;;;;;;;20.09;81.92;94704.06;4993721;28;20213;-75
2023/08/24 02:52:09;;;;;;;13.70;9.55;;;;;;;20.10;82.22;94697.38;4993862;28;20700;-76
2023/08/24 02:54:36;;;;;;;14.23;9.50;;;;;;;19.91;82.97;94696.91;4993250;28;20260;-75
2023/08/24 02:57:03;;;;;;;15.88;9.15;;;;;;;19.81;83.55;94688.22;4993376;28;20206;-76
2023/08/24 02:59:30;;;;;;;17.08;10.43;;;;;;;20.17;82.23;94685.63;4993200;28;20240;-75
2023/08/24 03:01:57;;;;;;;15.07;9.60;;;;;;;20.22;82.11;94674.28;4992958;28;20202;-74
2023/08/24 03:04:24;;;;;;;13.98;9.38;;;;;;;20.08;82.63;94679.72;4993674;28;20237;-75
2023/08/24 03:06:51;;;;;;;18.25;9.32;;;;;;;19.99;82.17;94682.81;4993219;28;20250;-75
2023/08/24 03:09:19;;;;;;;14.45;9.60;;;;;;;19.95;82.72;94686.72;4993070;28;20693;-75
2023/08/24 03:11:46;;;;;;;15.32;9.55;;;;;;;19.85;83.58;94694.53;4992828;28;20225;-75
2023/08/24 03:14:12;;;;;;;12.98;9.43;;;;;;;19.76;84.60;94705.09;4993166;28;20253;-76
2023/08/24 03:16:40;;;;;;;13.25;8.48;;;;;;;19.64;85.76;94704.63;4993363;28;20225;-76
2023/08/24 03:19:07;;;;;;;15.07;8.82;;;;;;;19.49;86.92;94711.97;4993180;28;20205;-75
2023/08/24 03:21:34;;;;;;;15.35;9.88;;;;;;;19.41;87.88;94724.03;4992578;28;20233;-75
2023/08/24 03:24:00;;;;;;;13.27;9.45;;;;;;;19.37;87.69;94728.75;4990795;28;20264;-75
2023/08/24 03:26:29;;;;;;;17.90;10.00;;;;;;;19.28;87.88;94722.75;4989605;28;20244;-75
2023/08/24 03:28:55;;;;;;;16.67;9.75;;;;;;;19.32;87.41;94727.13;4993004;28;20244;-75
2023/08/24 03:31:23;;;;;;;15.98;10.25;;;;;;;19.42;87.22;94729.16;5006437;28;20211;-75
2023/08/24 03:33:50;;;;;;;15.57;9.90;;;;;;;19.42;87.28;94742.91;5002615;28;20255;-75
2023/08/24 03:36:17;;;;;;;13.52;9.68;;;;;;;19.45;86.67;94747.63;4996928;28;20297;-75
2023/08/24 03:38:43;;;;;;;17.90;10.00;;;;;;;19.51;86.62;94751.66;5002826;28;20223;-75
2023/08/24 03:41:11;;;;;;;17.63;9.48;;;;;;;19.50;86.41;94750.06;4996872;28;20210;-76
2023/08/24 03:43:39;;;;;;;17.27;9.45;;;;;;;19.55;86.83;94751.66;4993459;28;20244;-75
2023/08/24 03:46:06;;;;;;;15.50;9.85;;;;;;;19.63;86.31;94747.81;4992639;28;20240;-75
2023/08/24 03:48:33;;;;;;;18.65;10.20;;;;;;;19.60;86.10;94759.56;4992602;28;20214;-75
2023/08/24 03:51:01;;;;;;;12.98;9.13;;;;;;;19.65;84.93;94761.97;5005374;28;20220;-75
2023/08/24 03:53:27;;;;;;;15.52;9.73;;;;;;;19.69;84.98;94757.25;4992536;28;20737;-76
2023/08/24 03:55:55;;;;;;;18.40;10.45;;;;;;;19.73;83.80;94760.81;4986516;28;20205;-75
2023/08/24 03:58:22;;;;;;;18.08;9.80;;;;;;;19.81;83.88;94756.19;4992144;28;20205;-75
2023/08/24 04:00:50;;;;;;;12.70;9.48;;;;;;;19.94;83.42;94756.66;4992077;28;20213;-75
2023/08/24 04:03:17;;;;;;;16.23;9.65;;;;;;;20.03;83.03;94748.84;4992148;28;20209;-75
2023/08/24 04:05:44;;;;;;;17.50;10.23;;;;;;;19.99;84.04;94748.81;4992313;28;20261;-75
2023/08/24 04:08:11;;;;;;;41.95;22.73;;;;;;;20.11;82.46;94755.94;4992254;28;20222;-75
2023/08/24 04:10:38;;;;;;;18.25;10.43;;;;;;;20.10;83.78;94748.84;4991878;28;20213;-75
2023/08/24 04:13:05;;;;;;;18.58;10.85;;;;;;;20.17;83.77;94743.41;4992390;28;20243;-74
2023/08/24 04:15:32;;;;;;;19.55;11.40;;;;;;;20.25;83.17;94761.50;4991943;28;20242;-75
2023/08/24 04:18:00;;;;;;;19.83;10.23;;;;;;;20.22;83.14;94754.06;4974291;28;20877;-76
2023/08/24 04:20:27;;;;;;;18.20;10.65;;;;;;;20.36;82.31;94745.88;4991980;28;20206;-76
2023/08/24 04:22:55;;;;;;;17.90;10.38;;;;;;;20.43;82.27;94745.91;4991375;28;20719;-76
2023/08/24 04:25:23;;;;;;;18.25;10.02;;;;;;;20.44;81.62;94741.19;4991269;28;20221;-76
2023/08/24 04:27:49;;;;;;;13.82;9.95;;;;;;;20.46;81.83;94731.38;4992015;28;20306;-76
2023/08/24 04:30:16;;;;;;;17.15;10.88;;;;;;;20.62;79.61;94735.75;4991677;28;20229;-76
2023/08/24 04:32:43;;;;;;;16.02;10.00;;;;;;;20.78;78.60;94733.41;4991728;28;20615;-76
2023/08/24 04:35:11;;;;;;;16.25;10.10;;;;;;;20.70;79.50;94743.63;4981557;28;20209;-76
2023/08/24 04:37:38;;;;;;;16.95;10.07;;;;;;;20.51;80.50;94753.00;4997664;28;20209;-76
2023/08/24 04:40:07;;;;;;;17.70;10.60;;;;;;;20.41;81.24;94753.75;4991743;28;20290;-75
2023/08/24 04:42:34;;;;;;;17.73;10.68;;;;;;;20.30;82.44;94752.91;4991093;28;20267;-76
2023/08/24 04:45:01;;;;;;;18.08;10.98;;;;;;;20.23;82.57;94747.34;4991709;28;20267;-76
2023/08/24 04:47:28;;;;;;;21.65;11.55;;;;;;;20.51;81.75;94753.00;4991228;28;20233;-76
2023/08/24 04:49:55;;;;;;;15.95;10.70;;;;;;;20.84;80.45;94753.91;4991813;28;20983;-76
2023/08/24 04:52:24;;;;;;;18.85;10.95;;;;;;;21.04;79.33;94749.63;4991203;28;20213;-76
2023/08/24 04:54:50;;;;;;;26.08;11.32;;;;;;;21.24;78.86;94755.56;4990892;28;20224;-76
2023/08/24 04:57:18;;;;;;;22.27;11.70;;;;;;;21.42;78.77;94752.81;4991398;28;20658;-76
2023/08/24 04:59:45;;;;;;;17.55;10.80;;;;;;;21.49;78.49;94761.06;4991514;28;20268;-76
2023/08/24 05:02:11;;;;;;;24.08;11.57;;;;;;;21.57;78.78;94762.66;4991601;28;20635;-76
2023/08/24 05:04:38;;;;;;;25.02;11.25;;;;;;;21.61;78.68;94752.41;4991515;28;20205;-76
2023/08/24 05:07:06;;;;;;;27.23;12.05;;;;;;;21.71;77.67;94751.63;4991180;28;20248;-76
2023/08/24 05:09:34;;;;;;;22.40;11.00;;;;;;;21.56;78.06;94756.38;4990950;28;20210;-77
2023/08/24 05:12:01;;;;;;;17.88;10.82;;;;;;;21.80;76.80;94754.75;4990902;28;20210;-77
2023/08/24 05:14:29;;;;;;;25.30;12.45;;;;;;;21.89;76.24;94746.84;4990048;28;20260;-77
2023/08/24 05:16:56;;;;;;;17.48;11.68;;;;;;;21.93;76.30;94755.91;4991010;28;20720;-76
2023/08/24 05:19:23;;;;;;;25.75;12.60;;;;;;;21.69;77.00;94753.22;4990479;28;20240;-77
2023/08/24 05:21:50;;;;;;;23.60;12.73;;;;;;;21.69;77.55;94765.03;4991019;28;20221;-77
2023/08/24 05:24:17;;;;;;;27.33;13.13;;;;;;;21.58;78.53;94764.25;4991003;28;20218;-76
2023/08/24 05:26:45;;;;;;;26.73;12.05;;;;;;;21.69;78.32;94765.03;4990625;28;20233;-76
2023/08/24 05:29:12;;;;;;;20.17;11.13;;;;;;;21.72;78.32;94772.50;4991234;28;20675;-76
2023/08/24 05:31:39;;;;;;;27.00;11.88;;;;;;;21.81;77.39;94767.38;4990816;28;20559;-76
2023/08/24 05:34:06;;;;;;;30.63;12.70;;;;;;;21.85;78.17;94770.94;4990984;28;20216;-76
2023/08/24 05:36:34;;;;;;;27.45;12.52;;;;;;;21.72;79.72;94769.75;4991222;28;20276;-75
2023/08/24 05:39:01;;;;;;;16.20;11.85;;;;;;;21.75;79.57;94774.47;4990869;28;20213;-76
2023/08/24 05:41:27;;;;;;;18.77;10.93;;;;;;;22.03;78.45;94778.38;4990957;28;20208;-76
2023/08/24 05:43:57;;;;;;;21.15;11.52;;;;;;;22.18;76.90;94774.41;4990471;28;20224;-76
2023/08/24 05:46:24;;;;;;;21.98;15.55;;;;;;;22.63;75.40;94767.97;4991273;28;20230;-76
2023/08/24 05:48:50;;;;;;;21.42;12.85;;;;;;;22.55;75.60;94782.97;4990994;28;20213;-76
2023/08/24 05:51:17;;;;;;;23.45;12.35;;;;;;;22.93;74.54;94783.25;4990727;28;20221;-76
2023/08/24 05:53:44;;;;;;;27.10;12.55;;;;;;;23.20;73.13;94781.50;4990289;28;20225;-76
2023/08/24 05:56:11;;;;;;;24.60;16.60;;;;;;;23.49;72.10;94779.34;4990945;28;20260;-76
2023/08/24 05:58:38;;;;;;;21.00;16.48;;;;;;;23.80;70.26;94782.25;4974327;28;20248;-76
2023/08/24 06:01:07;;;;;;;24.08;15.98;;;;;;;24.35;67.40;94784.91;4992130;28;20280;-77
2023/08/24 06:03:35;;;;;;;22.45;15.65;;;;;;;24.92;65.94;94779.50;4992031;28;20205;-76
2023/08/24 06:06:03;;;;;;;25.42;17.23;;;;;;;25.96;62.82;94779.56;4993716;28;20285;-78
2023/08/24 06:08:30;;;;;;;26.00;16.55;;;;;;;27.86;57.77;94772.50;4994229;28;20213;-75
2023/08/24 06:10:57;;;;;;;24.73;17.05;;;;;;;29.61;52.35;94764.44;4994857;28;20210;-75
2023/08/24 06:13:24;;;;;;;20.45;14.00;;;;;;;30.56;48.54;94765.28;4992459;28;20236;-78
2023/08/24 06:15:51;;;;;;;23.27;14.85;;;;;;;31.22;46.22;94765.28;4992806;28;20216;-77
2023/08/24 06:18:20;;;;;;;17.88;15.32;;;;;;;30.78;47.34;94776.47;4992763;28;20202;-76
2023/08/24 06:20:48;;;;;;;21.15;15.25;;;;;;;29.88;49.12;94777.16;4992646;28;20194;-75
2023/08/24 06:23:19;;;;;;;22.52;15.52;;;;;;;29.58;49.89;94775.72;4990222;28;20216;-76
2023/08/24 06:25:46;;;;;;;19.75;14.85;;;;;;;29.13;50.53;94779.44;4992878;28;20202;-80
2023/08/24 06:28:13;;;;;;;21.73;14.98;;;;;;;29.97;50.00;94774.47;4992680;28;20228;-76
2023/08/24 06:30:44;;;;;;;18.67;15.68;;;;;;;30.64;46.92;94774.97;4992670;28;20268;-76
2023/08/24 06:33:11;;;;;;;23.65;16.20;;;;;;;30.01;47.76;94770.34;4992705;28;20252;-76
2023/08/24 06:35:41;;;;;;;20.75;15.55;;;;;;;30.06;48.13;94777.38;4990595;28;20667;-76
2023/08/24 06:38:08;;;;;;;19.05;15.77;;;;;;;30.80;46.56;94779.59;4990277;28;20198;-77
2023/08/24 06:40:38;;;;;;;23.65;15.65;;;;;;;32.18;43.70;94773.47;4991422;28;20582;-77
2023/08/24 06:43:05;;;;;;;18.35;15.30;;;;;;;33.01;42.63;94766.69;4992127;28;20698;-77
2023/08/24 06:45:32;;;;;;;20.88;17.00;;;;;;;31.85;44.05;94772.44;4991534;28;20598;-78
2023/08/24 06:48:00;;;;;;;22.30;16.08;;;;;;;32.03;44.29;94773.28;4986714;28;20284;-78
2023/08/24 06:50:31;;;;;;;23.42;16.85;;;;;;;32.62;43.00;94767.63;4989746;28;20202;-77
2023/08/24 06:52:59;;;;;;;25.10;16.50;;;;;;;32.27;42.33;94770.69;4991648;28;20678;-77
2023/08/24 06:55:27;;;;;;;26.38;15.75;;;;;;;32.45;42.18;94779.16;4991565;28;20202;-77
2023/08/24 06:57:57;;;;;;;30.27;16.05;;;;;;;32.25;42.35;94767.59;4988923;28;20202;-78
2023/08/24 07:00:25;;;;;;;21.50;14.65;;;;;;;32.89;41.55;94772.47;4991810;28;20574;-77
2023/08/24 07:02:53;;;;;;;20.05;15.27;;;;;;;32.90;39.74;94766.41;4992600;28;20228;-77
2023/08/24 07:05:20;;;;;;;20.33;14.07;;;;;;;32.98;40.59;94764.81;4992255;28;20208;-78
2023/08/24 07:07:47;;;;;;;18.15;14.13;;;;;;;34.50;38.09;94759.53;4991625;28;20229;-77
2023/08/24 07:10:15;;;;;;;19.77;13.48;;;;;;;36.11;34.84;94762.94;4990404;28;20292;-76
2023/08/24 07:12:42;;;;;;;16.80;13.48;;;;;;;36.61;34.38;94755.97;4991967;28;20571;-75
2023/08/24 07:15:17;;;;;;;19.13;12.98;;;;;;;35.93;35.53;94758.34;4987374;28;20233;-76
2023/08/24 07:18:00;;;;;;;20.27;13.05;;;;;;;35.88;35.13;94761.84;4986676;28;20211;-76
2023/08/24 07:20:27;;;;;;;15.95;12.68;;;;;;;34.39;37.38;94764.94;4989641;28;20212;-78
2023/08/24 07:22:54;;;;;;;17.02;12.35;;;;;;;33.35;38.63;94759.16;4986813;28;20215;-77
2023/08/24 07:25:22;;;;;;;18.83;13.18;;;;;;;32.43;40.62;94762.00;4993455;28;20206;-77
2023/08/24 07:27:49;;;;;;;18.98;13.50;;;;;;;31.71;41.99;94754.97;4991866;28;20328;-77
2023/08/24 07:30:16;;;;;;;20.75;14.00;;;;;;;31.33;42.81;94765.66;4989826;28;20215;-77
2023/08/24 07:32:43;;;;;;;17.90;12.80;;;;;;;30.77;44.27;94758.13;4991868;28;20214;-77
2023/08/24 07:35:10;;;;;;;21.35;14.05;;;;;;;29.39;46.87;94763.53;4993133;28;20205;-75
2023/08/24 07:37:37;;;;;;;20.95;13.15;;;;;;;28.93;48.73;94774.06;4992274;28;20227;-76
2023/08/24 07:40:05;;;;;;;17.08;14.02;;;;;;;28.33;51.22;94783.25;4992855;28;20560;-77
2023/08/24 07:42:44;;;;;;;18.95;12.95;;;;;;;28.99;50.23;94761.09;4990033;28;20309;-77
2023/08/24 07:45:11;;;;;;;18.50;13.30;;;;;;;28.88;50.13;94769.00;4988956;28;20301;-77
2023/08/24 07:47:38;;;;;;;15.57;12.60;;;;;;;29.37;48.54;94760.38;4991626;28;20285;-76
2023/08/24 07:50:07;;;;;;;24.60;14.38;;;;;;;30.18;46.00;94762.59;4990813;28;20213;-78
2023/08/24 07:52:33;;;;;;;21.95;13.65;;;;;;;30.70;45.26;94756.38;4991014;28;20312;-79
2023/08/24 07:55:03;;;;;;;15.45;12.75;;;;;;;31.18;44.67;94757.03;4991797;28;20631;-77
2023/08/24 07:57:31;;;;;;;17.33;13.50;;;;;;;30.06;46.30;94759.84;4990130;28;20384;-76
2023/08/24 08:00:00;;;;;;;18.17;13.25;;;;;;;30.74;45.73;94747.88;4990218;28;20205;-77
2023/08/24 08:02:26;;;;;;;15.52;12.32;;;;;;;31.34;45.04;94756.03;4989211;28;20263;-78
2023/08/24 08:04:58;;;;;;;18.55;12.38;;;;;;;31.28;44.16;94746.69;4991369;28;20209;-78
2023/08/24 08:07:25;;;;;;;17.52;11.93;;;;;;;31.13;44.04;94762.44;4995406;28;20240;-78
2023/08/24 08:09:54;;;;;;;13.75;11.85;;;;;;;31.58;42.99;94747.88;4989181;28;20216;-78
2023/08/24 08:12:21;;;;;;;15.38;12.13;;;;;;;30.85;44.87;94756.66;4991136;28;20216;-77
2023/08/24 08:14:48;;;;;;;15.63;12.18;;;;;;;31.05;43.72;94753.50;4998034;28;20233;-76
2023/08/24 08:17:16;;;;;;;19.67;12.10;;;;;;;31.65;42.93;94754.00;4989126;28;20564;-78
2023/08/24 08:19:43;;;;;;;16.30;12.13;;;;;;;32.26;41.55;94763.53;4989636;28;20305;-78
2023/08/24 08:22:10;;;;;;;13.52;11.40;;;;;;;32.12;41.51;94753.66;4990576;28;20210;-79
2023/08/24 08:24:37;;;;;;;15.05;11.73;;;;;;;32.50;40.60;94755.31;4998500;28;20205;-79
2023/08/24 08:27:04;;;;;;;15.50;12.05;;;;;;;32.91;39.96;94756.72;4993554;28;20542;-79
2023/08/24 08:29:30;;;;;;;12.85;10.90;;;;;;;32.76;39.64;94755.81;4989228;28;20251;-79
2023/08/24 08:31:57;;;;;;;12.32;10.98;;;;;;;32.77;40.05;94741.31;4989338;28;20211;-77
2023/08/24 08:34:25;;;;;;;11.90;10.20;;;;;;;32.98;38.77;94739.53;4988590;28;20716;-77
2023/08/24 08:36:52;;;;;;;14.05;10.60;;;;;;;33.50;38.35;94734.75;4995593;28;20213;-78
2023/08/24 08:39:19;;;;;;;14.13;11.00;;;;;;;33.32;38.10;94746.06;4984656;28;20622;-77
2023/08/24 08:41:47;;;;;;;15.38;10.25;;;;;;;32.97;39.21;94732.38;4986566;28;20212;-77
2023/08/24 08:44:15;;;;;;;13.23;10.02;;;;;;;33.12;37.97;94733.28;4984378;28;20213;-79
2023/08/24 08:46:43;;;;;;;16.33;9.82;;;;;;;33.38;37.98;94732.91;4987207;28;20210;-78
2023/08/24 08:49:15;;;;;;;12.63;10.25;;;;;;;32.73;39.10;94728.66;4986135;28;20616;-79
2023/08/24 08:51:44;;;;;;;16.48;10.75;;;;;;;33.30;38.45;94726.09;4988097;28;20213;-78
2023/08/24 08:54:11;;;;;;;15.25;10.60;;;;;;;32.87;38.20;94721.63;4984329;28;20206;-78
2023/08/24 08:56:38;;;;;;;14.30;10.43;;;;;;;33.05;38.06;94716.78;4982726;28;20209;-79
2023/08/24 08:59:09;;;;;;;12.73;10.65;;;;;;;32.39;39.06;94722.09;4988415;28;20218;-78
2023/08/24 09:01:38;;;;;;;13.50;10.05;;;;;;;32.95;38.32;94714.44;4983785;28;20210;-77
2023/08/24 09:04:07;;;;;;;15.43;10.80;;;;;;;33.44;38.03;94703.72;4985799;28;20206;-80
2023/08/24 09:06:34;;;;;;;11.48;10.27;;;;;;;33.96;36.83;94698.00;4986360;28;20213;-78
2023/08/24 09:09:03;;;;;;;14.55;10.40;;;;;;;34.47;36.88;94692.19;4987617;28;20229;-78
2023/08/24 09:11:30;;;;;;;13.82;11.25;;;;;;;33.81;37.35;94701.53;4986472;28;20610;-75
2023/08/24 09:13:57;;;;;;;13.75;11.07;;;;;;;32.78;38.89;94697.19;4988032;28;20237;-77
2023/08/24 09:16:24;;;;;;;15.27;10.93;;;;;;;32.76;39.08;94691.25;4986287;28;20210;-79
2023/08/24 09:18:50;;;;;;;12.80;11.45;;;;;;;32.70;38.92;94695.91;4989518;28;20197;-78
2023/08/24 09:21:17;;;;;;;13.00;11.18;;;;;;;32.86;38.35;94689.19;4990499;28;20201;-78
2023/08/24 09:23:45;;;;;;;14.48;10.90;;;;;;;32.94;39.14;94691.19;4990168;28;20205;-80
2023/08/24 09:26:14;;;;;;;12.35;11.15;;;;;;;33.23;37.94;94679.41;4988432;28;20647;-77
2023/08/24 09:28:44;;;;;;;13.38;11.15;;;;;;;33.47;38.10;94679.53;4988673;28;20272;-78
2023/08/24 09:31:13;;;;;;;16.27;11.48;;;;;;;33.49;38.37;94660.13;4988522;28;20311;-78
2023/08/24 09:33:44;;;;;;;15.38;11.88;;;;;;;33.44;38.06;94663.59;4988771;28;20287;-80
2023/08/24 09:36:14;;;;;;;13.95;11.25;;;;;;;33.66;37.18;94664.09;4987334;28;20194;-78
2023/08/24 09:38:48;;;;;;;15.55;11.63;;;;;;;34.20;36.44;94656.59;4985079;28;20256;-79
2023/08/24 09:41:16;;;;;;;12.63;11.32;;;;;;;34.36;36.03;94653.34;4988269;28;20202;-79
2023/08/24 09:43:43;;;;;;;15.18;11.80;;;;;;;34.42;36.20;94651.44;4988481;28;20721;-78
2023/08/24 09:46:10;;;;;;;12.80;11.45;;;;;;;34.38;35.68;94645.22;4990096;28;20221;-76
2023/08/24 09:48:37;;;;;;;12.02;10.50;;;;;;;34.75;35.64;94650.50;4988619;28;20229;-78
2023/08/24 09:51:06;;;;;;;12.52;10.85;;;;;;;35.02;35.12;94653.03;4990755;28;20214;-79
2023/08/24 09:53:38;;;;;;;13.40;11.48;;;;;;;34.78;35.12;94649.56;4990480;28;20296;-79
2023/08/24 09:56:07;;;;;;;15.63;12.15;;;;;;;34.29;35.78;94638.91;4988885;28;20237;-78
2023/08/24 09:58:35;;;;;;;13.52;12.00;;;;;;;34.27;35.95;94647.03;4989471;28;20679;-78
2023/08/24 10:01:05;;;;;;;17.70;12.20;;;;;;;34.23;35.67;94633.13;4986468;28;20208;-80
2023/08/24 10:03:33;;;;;;;14.07;11.38;;;;;;;34.49;35.21;94634.16;4990829;28;20240;-77
2023/08/24 10:06:01;;;;;;;14.02;11.07;;;;;;;33.95;36.10;94629.75;4990736;28;20220;-78
2023/08/24 10:08:30;;;;;;;13.00;11.05;;;;;;;34.49;36.07;94625.72;4988902;28;20225;-79
2023/08/24 10:10:59;;;;;;;14.45;11.25;;;;;;;34.72;34.83;94623.31;4990697;28;20650;-78
2023/08/24 10:13:37;;;;;;;13.75;10.73;;;;;;;34.96;34.96;94629.66;4990015;28;20240;-79
2023/08/24 10:16:06;;;;;;;12.95;10.35;;;;;;;35.73;33.35;94622.91;4989537;28;20263;-79
2023/08/24 10:18:34;;;;;;;12.30;10.55;;;;;;;36.17;32.46;94617.09;4989643;28;20681;-78
2023/08/24 10:21:02;;;;;;;14.25;11.05;;;;;;;35.74;33.60;94616.75;4990386;28;20577;-79
2023/08/24 10:23:30;;;;;;;13.07;11.38;;;;;;;34.79;34.65;94622.97;4990064;28;20676;-79
2023/08/24 10:25:57;;;;;;;13.80;11.05;;;;;;;34.76;34.45;94626.72;4989700;28;20206;-77
2023/08/24 10:28:25;;;;;;;14.45;10.73;;;;;;;34.84;33.86;94619.47;4989456;28;20232;-80
2023/08/24 10:30:53;;;;;;;14.15;9.68;;;;;;;35.04;33.05;94616.72;4989247;28;21351;-79
2023/08/24 10:33:23;;;;;;;10.35;9.10;;;;;;;34.23;33.17;94621.88;4989666;28;20202;-79
2023/08/24 10:35:50;;;;;;;14.80;11.18;;;;;;;34.56;33.55;94605.66;4988668;28;20416;-79
2023/08/24 10:38:27;;;;;;;13.15;11.30;;;;;;;34.41;33.97;94609.72;4990049;28;20209;-80
2023/08/24 10:40:55;;;;;;;11.23;10.00;;;;;;;34.09;34.56;94602.94;4989759;28;20201;-78
2023/08/24 10:43:23;;;;;;;11.90;10.07;;;;;;;34.00;34.24;94608.63;4990046;28;20206;-78
2023/08/24 10:45:57;;;;;;;14.63;10.13;;;;;;;34.19;34.31;94610.81;4992127;28;20214;-77
2023/08/24 10:48:27;;;;;;;10.88;9.80;;;;;;;33.81;34.34;94614.38;4993286;28;20229;-81
2023/08/24 10:51:20;;;;;;;13.15;9.65;;;;;;;33.13;35.56;94611.28;4993207;28;20212;-79
2023/08/24 10:53:48;;;;;;;13.68;9.68;;;;;;;32.82;36.06;94613.56;4993698;28;20305;-79
2023/08/24 10:56:16;;;;;;;11.68;9.50;;;;;;;32.77;35.78;94605.81;4993866;28;20578;-79
2023/08/24 10:58:44;;;;;;;11.88;9.82;;;;;;;32.77;35.92;94605.81;4992218;28;20594;-80
2023/08/24 11:01:21;;;;;;;10.82;9.43;;;;;;;33.01;36.01;94603.84;4992558;28;20214;-77
2023/08/24 11:03:56;;;;;;;12.60;10.52;;;;;;;32.66;36.80;94611.91;4994501;28;20206;-77
2023/08/24 11:06:24;;;;;;;13.43;11.05;;;;;;;32.18;38.49;94593.25;4992748;28;20240;-76
2023/08/24 11:09:13;;;;;;;12.68;10.88;;;;;;;31.47;40.21;94604.69;4992699;28;20221;-77
2023/08/24 11:11:40;;;;;;;12.90;10.02;;;;;;;30.06;43.37;94606.91;4991688;28;20210;-75
2023/08/24 11:14:19;;;;;;;11.95;10.48;;;;;;;30.13;44.36;94608.66;4990734;28;20249;-79
2023/08/24 11:16:47;;;;;;;14.70;11.88;;;;;;;30.36;44.32;94595.00;4991088;28;20256;-79
2023/08/24 11:19:16;;;;;;;14.70;11.38;;;;;;;30.47;44.26;94600.22;4991469;28;20206;-81
2023/08/24 11:21:44;;;;;;;12.57;10.93;;;;;;;30.53;44.30;94592.00;4990927;28;20209;-76
2023/08/24 11:24:14;;;;;;;12.85;11.15;;;;;;;30.45;44.52;94591.50;4991875;28;20213;-79